Upstream stations:
Downstream station:
SHEF ID: BFFO2 Cimarron River near Buffalo, OK
STATION TYPE:
Regulating: Stage = 6.00, Flow = 750
PRECIP STAGE RIV-FLOW BAT-LOAD
in ft cfs volt
Ccp-Rev Ccp-Rev Ccp-Rev Ccp-Rev
(US/Central)
01/28 00:00 0.00 3.27 14 12.65
01/28 01:00 0.00 3.28 15 12.65
01/28 02:00 0.00 3.35 21 12.65
01/28 03:00 0.00 3.32 18 12.57
01/28 04:00 0.00 3.35 21 12.57
01/28 05:00 0.00 3.31 17 12.57
01/28 06:00 0.00 3.33 19 12.49
01/28 07:00 0.00 3.30 16 12.49
01/28 08:00 0.00 3.32 18 12.41
01/28 09:00 0.00 3.30 16 13.29
01/28 10:00 0.00 3.32 18 13.53
01/28 11:00 0.00 3.31 17 13.60
01/28 12:00 0.00 3.29 16 13.68
01/28 13:00 0.00 3.29 16 13.68
01/28 14:00 0.00 3.30 16 13.76
01/28 15:00 0.00 3.30 16 13.60
01/28 16:00 0.00 3.30 16 13.44
01/28 17:00 0.00 3.29 16 13.60
01/28 18:00 0.00 3.27 14 13.44
01/28 19:00 0.00 3.27 14 12.97
01/28 20:00 0.00 3.29 16 12.81
01/28 21:00 0.00 3.26 13 12.81
01/28 22:00 0.00 3.30 16 12.73
01/28 23:00 0.00 3.28 15 12.73